Time;durP1;ratioP1;P1;durP2;ratioP2;P2;SDS_P1;SDS_P2;PMS_P1;PMS_P2;Temp;Humidity;BMP_temperature;BMP_pressure;BME280_temperature;BME280_humidity;BME280_pressure;Samples;Min_cycle;Max_cycle;Signal;HPM_P1;HPM_P2
2021/07/26 00:01:41;;;;;;;5.15;3.83;;;28.10;54.50;;;;;;4975535;28;20033;-60
2021/07/26 00:04:07;;;;;;;6.63;4.22;;;28.00;54.80;;;;;;4975005;28;20081;-60
2021/07/26 00:06:33;;;;;;;6.90;4.30;;;28.00;54.80;;;;;;4992994;28;20053;-60
2021/07/26 00:08:59;;;;;;;4.57;3.70;;;28.00;54.90;;;;;;4992073;28;20027;-61
2021/07/26 00:11:25;;;;;;;4.63;3.30;;;27.90;55.10;;;;;;4992818;28;20030;-60
2021/07/26 00:13:51;;;;;;;4.80;3.55;;;27.90;54.70;;;;;;4992182;28;20023;-61
2021/07/26 00:16:16;;;;;;;9.02;3.80;;;27.90;54.60;;;;;;4992412;28;20029;-61
2021/07/26 00:18:42;;;;;;;5.55;3.55;;;27.90;54.80;;;;;;4992415;28;20034;-59
2021/07/26 00:21:08;;;;;;;5.25;3.45;;;27.90;55.00;;;;;;4991830;28;20033;-60
2021/07/26 00:23:33;;;;;;;6.82;3.90;;;27.90;55.00;;;;;;4992632;28;20029;-60
2021/07/26 00:25:59;;;;;;;5.00;3.45;;;27.90;54.70;;;;;;4994431;28;20354;-60
2021/07/26 00:28:25;;;;;;;5.18;3.53;;;27.90;54.70;;;;;;4995993;28;20034;-60
2021/07/26 00:30:50;;;;;;;4.57;3.40;;;27.90;55.00;;;;;;4995934;28;20457;-61
2021/07/26 00:34:04;;;;;;;7.45;3.60;;;27.90;55.10;;;;;;4995895;28;20022;-60
2021/07/26 00:36:32;;;;;;;4.13;3.28;;;27.90;55.30;;;;;;4996038;28;20046;-60
2021/07/26 00:38:58;;;;;;;7.20;3.60;;;27.90;55.30;;;;;;4995510;28;20046;-60
2021/07/26 00:41:23;;;;;;;3.85;3.45;;;27.80;55.30;;;;;;4995939;28;20118;-60
2021/07/26 00:43:49;;;;;;;6.35;3.42;;;27.90;55.30;;;;;;4995903;28;20019;-60
2021/07/26 00:46:34;;;;;;;6.28;3.70;;;27.80;55.30;;;;;;4995756;28;20117;-60
2021/07/26 00:49:23;;;;;;;6.93;3.35;;;27.80;55.50;;;;;;4995119;28;20073;-61
2021/07/26 00:51:54;;;;;;;6.57;3.53;;;27.80;55.30;;;;;;4995910;28;20034;-60
2021/07/26 00:54:26;;;;;;;5.93;3.83;;;27.80;55.40;;;;;;4995786;28;20117;-60
2021/07/26 00:56:52;;;;;;;6.40;4.00;;;27.80;55.30;;;;;;4995179;28;20022;-60
2021/07/26 00:59:18;;;;;;;5.78;3.35;;;27.80;55.40;;;;;;4995388;28;20034;-60
2021/07/26 01:01:45;;;;;;;5.53;3.70;;;27.70;55.30;;;;;;4995596;28;20105;-60
2021/07/26 01:04:10;;;;;;;7.07;3.75;;;27.70;55.40;;;;;;4995055;28;20030;-60
2021/07/26 01:06:38;;;;;;;6.65;3.95;;;27.80;56.20;;;;;;4995199;28;20121;-60
2021/07/26 01:09:03;;;;;;;5.35;3.75;;;27.70;55.30;;;;;;4995291;28;20037;-60
2021/07/26 01:11:29;;;;;;;6.30;4.30;;;27.70;55.50;;;;;;4995399;28;20397;-60
2021/07/26 01:13:55;;;;;;;6.53;4.00;;;27.70;55.60;;;;;;4994598;28;20023;-60
2021/07/26 01:16:23;;;;;;;6.38;3.90;;;27.70;55.70;;;;;;4995116;28;20037;-60
2021/07/26 01:18:49;;;;;;;4.30;3.53;;;27.70;55.80;;;;;;4995595;28;20038;-60
2021/07/26 01:21:17;;;;;;;6.45;4.20;;;27.70;55.90;;;;;;4994512;28;20101;-60
2021/07/26 01:23:45;;;;;;;5.85;3.90;;;27.70;55.90;;;;;;4995278;28;20023;-60
2021/07/26 01:26:15;;;;;;;6.10;3.90;;;27.70;56.00;;;;;;4994393;28;20385;-60
2021/07/26 01:28:46;;;;;;;6.05;4.53;;;27.70;56.10;;;;;;4995154;28;20116;-60
2021/07/26 01:31:13;;;;;;;5.45;3.72;;;27.70;55.90;;;;;;4994333;28;20022;-60
2021/07/26 01:33:41;;;;;;;5.70;3.90;;;27.70;55.90;;;;;;4994746;28;20026;-60
2021/07/26 01:36:07;;;;;;;5.03;3.50;;;27.80;56.00;;;;;;4994370;28;20026;-60
2021/07/26 01:38:33;;;;;;;5.38;4.10;;;27.70;55.70;;;;;;4993997;28;20102;-60
2021/07/26 01:41:03;;;;;;;5.68;3.20;;;27.70;55.50;;;;;;4994693;28;20034;-60
2021/07/26 01:43:33;;;;;;;5.50;3.40;;;27.70;55.40;;;;;;4994858;28;20031;-60
2021/07/26 01:46:23;;;;;;;4.90;3.65;;;27.70;55.20;;;;;;4994286;28;20030;-60
2021/07/26 01:48:55;;;;;;;5.22;3.60;;;27.60;55.50;;;;;;4994979;28;20038;-60
2021/07/26 01:51:47;;;;;;;6.13;3.40;;;27.70;55.30;;;;;;4977814;28;20161;-60
2021/07/26 01:54:13;;;;;;;4.63;3.63;;;27.60;55.40;;;;;;4994084;28;20099;-60
2021/07/26 01:56:39;;;;;;;3.80;3.25;;;27.70;55.40;;;;;;4994251;28;20066;-60
2021/07/26 01:59:06;;;;;;;5.32;3.50;;;27.70;55.40;;;;;;4993756;28;20070;-60
2021/07/26 02:01:32;;;;;;;5.20;4.05;;;27.60;55.40;;;;;;4994720;28;20031;-60
2021/07/26 02:03:58;;;;;;;6.25;3.25;;;27.60;55.40;;;;;;4993928;28;20046;-61
2021/07/26 02:06:25;;;;;;;5.18;3.80;;;27.60;55.40;;;;;;4994600;28;20050;-60
2021/07/26 02:08:51;;;;;;;6.72;3.92;;;27.70;55.60;;;;;;4994537;28;20109;-60
2021/07/26 02:11:35;;;;;;;5.80;4.38;;;27.70;55.70;;;;;;4993787;28;20118;-60
2021/07/26 02:14:08;;;;;;;8.57;3.50;;;27.60;55.70;;;;;;4976281;28;20030;-60
2021/07/26 02:16:34;;;;;;;16.98;13.20;;;27.60;55.70;;;;;;4993968;28;20034;-58
2021/07/26 02:19:00;;;;;;;10.05;8.30;;;27.60;55.60;;;;;;4992405;28;20097;-61
2021/07/26 02:21:26;;;;;;;5.47;3.60;;;27.60;55.50;;;;;;4993362;28;20389;-61
2021/07/26 02:23:51;;;;;;;26.25;18.73;;;27.60;55.50;;;;;;4993325;28;20545;-60
2021/07/26 02:26:17;;;;;;;53.83;41.75;;;27.60;55.30;;;;;;4975292;28;20420;-59
2021/07/26 02:28:42;;;;;;;23.50;16.98;;;27.60;55.30;;;;;;4976026;28;20022;-57
2021/07/26 02:31:08;;;;;;;32.13;28.20;;;27.60;55.20;;;;;;4992301;28;20030;-52
2021/07/26 02:33:34;;;;;;;46.50;41.08;;;27.60;55.30;;;;;;4992595;28;20026;-61
2021/07/26 02:35:59;;;;;;;40.25;33.83;;;27.60;55.30;;;;;;4992814;28;20102;-54
2021/07/26 02:38:25;;;;;;;53.78;47.15;;;27.60;55.40;;;;;;4992642;28;20027;-53
2021/07/26 02:40:51;;;;;;;24.27;18.40;;;27.60;55.50;;;;;;4992802;28;20041;-59
2021/07/26 02:43:16;;;;;;;29.08;25.60;;;27.50;55.30;;;;;;4974802;28;20035;-58
2021/07/26 02:45:43;;;;;;;36.22;31.35;;;27.60;55.20;;;;;;4975575;28;20033;-53
2021/07/26 02:48:10;;;;;;;60.22;51.08;;;27.60;55.30;;;;;;4992309;28;20034;-63
2021/07/26 02:50:36;;;;;;;48.78;40.17;;;27.60;55.40;;;;;;4975220;28;20035;-59
2021/07/26 02:53:02;;;;;;;40.20;32.85;;;27.60;55.40;;;;;;4974742;28;20037;-57
2021/07/26 02:55:29;;;;;;;42.65;33.28;;;27.60;55.40;;;;;;4992819;28;20033;-56
2021/07/26 02:57:56;;;;;;;34.63;27.52;;;27.60;55.60;;;;;;4992414;28;20034;-66
2021/07/26 03:00:22;;;;;;;28.15;22.15;;;27.60;55.70;;;;;;4992068;28;20037;-55
2021/07/26 03:02:48;;;;;;;35.50;28.73;;;27.60;55.70;;;;;;4992458;28;20026;-58
2021/07/26 03:05:14;;;;;;;19.92;16.55;;;27.50;55.80;;;;;;4991606;28;20081;-54
2021/07/26 03:07:40;;;;;;;16.50;14.20;;;27.60;55.80;;;;;;4991974;28;20053;-59
2021/07/26 03:10:06;;;;;;;25.77;19.63;;;27.60;55.70;;;;;;4991239;28;20026;-61
2021/07/26 03:12:32;;;;;;;33.85;25.73;;;27.60;55.70;;;;;;4991406;28;20042;-55
2021/07/26 03:14:58;;;;;;;18.33;13.85;;;27.50;55.70;;;;;;4991558;28;20432;-60
2021/07/26 03:17:25;;;;;;;27.80;23.67;;;27.50;55.60;;;;;;4991538;28;20419;-57
2021/07/26 03:19:54;;;;;;;30.30;26.77;;;27.50;55.70;;;;;;4992010;28;20049;-66
2021/07/26 03:22:49;;;;;;;25.00;22.30;;;27.40;55.80;;;;;;4973657;28;20392;-65
2021/07/26 03:25:15;;;;;;;20.45;18.25;;;27.30;55.90;;;;;;4991197;28;20034;-58
2021/07/26 03:27:40;;;;;;;17.92;14.50;;;27.40;55.90;;;;;;4991947;28;20031;-58
2021/07/26 03:30:07;;;;;;;17.05;9.48;;;27.30;56.00;;;;;;4991375;28;20050;-52
2021/07/26 03:32:32;;;;;;;13.60;9.00;;;27.30;56.00;;;;;;4992111;28;20034;-60
2021/07/26 03:34:58;;;;;;;15.55;11.15;;;27.30;56.10;;;;;;4991783;28;20031;-61
2021/07/26 03:37:24;;;;;;;13.02;8.38;;;27.30;56.10;;;;;;4991637;28;20045;-60
2021/07/26 03:39:49;;;;;;;12.32;9.98;;;27.20;56.00;;;;;;4992245;28;20484;-60
2021/07/26 03:42:15;;;;;;;32.95;28.17;;;27.30;56.10;;;;;;4991267;28;20465;-52
2021/07/26 03:44:40;;;;;;;53.45;45.25;;;27.30;56.10;;;;;;4992384;28;20114;-51
2021/07/26 03:47:06;;;;;;;27.42;24.05;;;27.30;56.00;;;;;;4991155;28;20385;-58
2021/07/26 03:49:32;;;;;;;15.95;12.73;;;27.30;56.00;;;;;;4992157;28;20104;-58
2021/07/26 03:51:57;;;;;;;13.00;9.77;;;27.30;56.00;;;;;;4992295;28;20138;-59
2021/07/26 03:54:23;;;;;;;11.88;8.35;;;27.30;56.00;;;;;;4973880;28;20084;-58
2021/07/26 03:56:49;;;;;;;14.88;11.32;;;27.20;56.60;;;;;;4992020;28;20484;-57
2021/07/26 03:59:14;;;;;;;18.90;14.70;;;27.20;56.10;;;;;;4991676;28;20110;-59
2021/07/26 04:01:40;;;;;;;22.02;17.92;;;27.10;56.30;;;;;;4994787;28;20031;-55
2021/07/26 04:04:06;;;;;;;20.55;15.98;;;27.10;56.40;;;;;;4977455;28;20457;-57
2021/07/26 04:06:31;;;;;;;35.25;27.30;;;27.10;56.50;;;;;;4996205;28;20043;-59
2021/07/26 04:08:57;;;;;;;21.52;15.65;;;27.10;56.50;;;;;;4995899;28;20084;-56
2021/07/26 04:11:34;;;;;;;21.15;14.65;;;27.00;56.50;;;;;;4995291;28;20034;-57
2021/07/26 04:14:02;;;;;;;17.20;12.52;;;27.00;56.60;;;;;;4995332;28;20043;-64
2021/07/26 04:16:28;;;;;;;21.08;15.95;;;27.00;56.60;;;;;;4995626;28;20026;-58
2021/07/26 04:18:56;;;;;;;38.25;26.73;;;27.00;56.70;;;;;;4995632;28;20209;-57
2021/07/26 04:21:31;;;;;;;98.13;72.07;;;27.00;56.70;;;;;;4977844;28;20057;-58
2021/07/26 04:23:58;;;;;;;56.42;40.38;;;26.90;57.00;;;;;;4977567;28;20037;-56
2021/07/26 04:26:24;;;;;;;50.22;38.55;;;27.00;57.00;;;;;;4994631;28;20146;-58
2021/07/26 04:28:50;;;;;;;36.42;27.85;;;27.00;57.10;;;;;;4994263;28;20125;-59
2021/07/26 04:31:15;;;;;;;43.63;32.85;;;27.00;57.10;;;;;;4994081;28;20026;-57
2021/07/26 04:34:00;;;;;;;23.58;16.42;;;27.00;57.10;;;;;;4994322;28;20374;-58
2021/07/26 04:36:26;;;;;;;20.38;14.73;;;26.90;57.10;;;;;;4994190;28;20030;-57
2021/07/26 04:38:52;;;;;;;18.33;13.75;;;26.90;57.10;;;;;;4976996;28;20034;-58
2021/07/26 04:41:17;;;;;;;24.25;16.88;;;26.90;57.10;;;;;;4993581;28;20023;-57
2021/07/26 04:43:43;;;;;;;19.20;12.48;;;26.90;57.20;;;;;;4994017;28;20380;-59
2021/07/26 04:46:09;;;;;;;20.58;14.30;;;26.90;57.30;;;;;;4976831;28;20060;-57
2021/07/26 04:48:35;;;;;;;26.42;17.95;;;26.90;57.40;;;;;;4995188;28;20100;-58
2021/07/26 04:51:01;;;;;;;18.25;11.75;;;26.90;57.40;;;;;;4994728;28;20045;-52
2021/07/26 04:53:27;;;;;;;13.90;9.20;;;26.90;57.60;;;;;;4976541;28;20182;-58
2021/07/26 04:55:52;;;;;;;33.75;25.75;;;26.90;57.50;;;;;;4977123;28;20117;-62
2021/07/26 04:58:18;;;;;;;148.23;127.40;;;26.90;57.50;;;;;;4993613;28;20076;-56
2021/07/26 05:00:43;;;;;;;126.95;113.15;;;27.00;57.60;;;;;;4994391;28;20058;-54
2021/07/26 05:03:09;;;;;;;126.25;110.57;;;27.00;57.60;;;;;;4992144;28;20405;-58
2021/07/26 05:05:36;;;;;;;107.15;93.35;;;27.00;57.60;;;;;;4976688;28;20137;-59
2021/07/26 05:08:02;;;;;;;115.75;99.75;;;27.10;57.80;;;;;;4976684;28;20084;-60
2021/07/26 05:10:27;;;;;;;44.90;38.92;;;27.10;57.80;;;;;;4993194;28;20033;-59
2021/07/26 05:12:53;;;;;;;48.67;40.58;;;27.20;58.20;;;;;;4993620;28;20030;-57
2021/07/26 05:15:19;;;;;;;33.63;28.10;;;27.20;57.60;;;;;;4993742;28;20109;-54
2021/07/26 05:17:44;;;;;;;27.55;23.42;;;27.20;57.60;;;;;;4994365;28;20037;-58
2021/07/26 05:20:11;;;;;;;94.28;79.53;;;27.20;57.60;;;;;;4993129;28;20038;-56
2021/07/26 05:22:39;;;;;;;94.90;84.85;;;27.30;57.60;;;;;;4994158;28;20027;-61
2021/07/26 05:25:06;;;;;;;64.75;53.63;;;27.20;57.50;;;;;;4993435;28;20034;-59
2021/07/26 05:27:32;;;;;;;79.30;70.65;;;27.30;57.40;;;;;;4993262;28;20030;-60
2021/07/26 05:29:58;;;;;;;101.20;86.57;;;27.30;57.40;;;;;;4993918;28;20367;-58
2021/07/26 05:32:23;;;;;;;91.57;81.38;;;27.30;57.20;;;;;;4993206;28;20111;-59
2021/07/26 05:34:49;;;;;;;46.20;38.30;;;27.40;57.10;;;;;;4993931;28;20053;-59
2021/07/26 05:37:16;;;;;;;44.25;30.23;;;27.40;56.90;;;;;;4975562;28;20034;-59
2021/07/26 05:39:42;;;;;;;30.73;22.33;;;27.50;56.80;;;;;;4993794;28;20038;-61
2021/07/26 05:42:10;;;;;;;21.27;15.10;;;27.50;56.70;;;;;;4975867;28;20092;-56
2021/07/26 05:44:40;;;;;;;19.92;14.52;;;27.50;56.70;;;;;;4993387;28;20030;-60
2021/07/26 05:47:10;;;;;;;210.77;189.90;;;27.50;56.60;;;;;;4994135;28;20036;-61
2021/07/26 05:49:37;;;;;;;90.63;65.65;;;27.50;56.50;;;;;;4993462;28;20022;-67
2021/07/26 05:52:03;;;;;;;264.73;208.68;;;27.50;56.50;;;;;;4993956;28;20026;-62
2021/07/26 05:54:29;;;;;;;97.15;77.03;;;27.60;56.30;;;;;;4993066;28;20105;-64
2021/07/26 05:56:55;;;;;;;148.23;118.32;;;27.60;56.00;;;;;;4993805;28;20035;-69
2021/07/26 05:59:21;;;;;;;145.15;121.22;;;27.70;56.00;;;;;;4993311;28;20030;-54
2021/07/26 06:01:50;;;;;;;188.30;159.25;;;27.70;55.80;;;;;;4993726;28;20022;-59
2021/07/26 06:04:17;;;;;;;68.88;56.13;;;27.70;55.60;;;;;;4975462;28;20031;-52
2021/07/26 06:06:46;;;;;;;109.13;90.47;;;27.70;55.30;;;;;;4993818;28;20089;-54
2021/07/26 06:09:12;;;;;;;54.63;44.63;;;27.70;55.20;;;;;;4993057;28;20018;-54
2021/07/26 06:11:39;;;;;;;60.00;47.95;;;27.80;55.10;;;;;;4993545;28;20034;-52
2021/07/26 06:14:06;;;;;;;62.00;49.17;;;27.80;55.10;;;;;;4993289;28;20030;-54
2021/07/26 06:16:31;;;;;;;45.22;36.72;;;27.80;55.00;;;;;;4992280;28;20030;-51
2021/07/26 06:18:59;;;;;;;36.67;29.33;;;27.90;55.10;;;;;;4993109;28;20030;-55
2021/07/26 06:21:26;;;;;;;42.15;33.70;;;27.90;55.10;;;;;;4991757;28;20057;-52
2021/07/26 06:23:51;;;;;;;27.42;20.45;;;27.90;55.10;;;;;;4992893;28;20030;-57
2021/07/26 06:26:17;;;;;;;26.27;17.00;;;28.00;55.10;;;;;;4993310;28;20428;-58
2021/07/26 06:28:43;;;;;;;27.80;19.92;;;28.00;55.00;;;;;;4993636;28;20034;-57
2021/07/26 06:31:10;;;;;;;28.05;21.48;;;28.00;55.70;;;;;;4975509;28;20030;-55
2021/07/26 06:33:36;;;;;;;26.08;19.05;;;28.00;55.10;;;;;;4993297;28;20174;-57
2021/07/26 06:36:03;;;;;;;22.35;18.33;;;28.10;55.00;;;;;;4975976;28;20469;-59
2021/07/26 06:38:29;;;;;;;24.35;15.13;;;28.10;55.00;;;;;;4985980;28;20034;-58
2021/07/26 06:40:55;;;;;;;10.10;7.82;;;28.10;55.00;;;;;;4985694;28;20030;-59
2021/07/26 06:43:21;;;;;;;10.48;7.10;;;28.10;54.80;;;;;;4989803;28;20022;-59
2021/07/26 06:45:47;;;;;;;12.95;7.65;;;28.10;54.90;;;;;;4991751;28;20033;-59
2021/07/26 06:48:13;;;;;;;11.77;7.63;;;28.10;55.00;;;;;;4991548;28;20474;-60
2021/07/26 06:50:39;;;;;;;10.18;6.32;;;28.10;55.00;;;;;;4992220;28;20505;-59
2021/07/26 06:53:07;;;;;;;11.43;7.55;;;28.20;54.90;;;;;;4992894;28;20069;-60
2021/07/26 06:55:35;;;;;;;10.73;7.00;;;28.20;54.80;;;;;;4991609;28;20031;-60
2021/07/26 06:58:01;;;;;;;9.90;6.72;;;28.30;54.70;;;;;;4992158;28;20038;-61
2021/07/26 07:00:27;;;;;;;8.82;6.60;;;28.40;54.70;;;;;;4991746;28;20034;-61
2021/07/26 07:02:53;;;;;;;8.70;6.35;;;28.40;54.40;;;;;;4992449;28;20034;-61
2021/07/26 07:05:18;;;;;;;12.25;6.50;;;28.50;54.30;;;;;;4991764;28;20061;-60
2021/07/26 07:07:44;;;;;;;9.77;6.13;;;28.60;54.10;;;;;;4992844;28;20436;-59
2021/07/26 07:10:11;;;;;;;10.75;5.53;;;28.70;53.90;;;;;;4992709;28;20457;-60
2021/07/26 07:12:36;;;;;;;7.47;5.70;;;28.80;53.90;;;;;;4992459;28;20081;-60
2021/07/26 07:15:03;;;;;;;14.50;5.63;;;28.90;53.80;;;;;;4974817;28;20030;-60
2021/07/26 07:17:28;;;;;;;12.05;6.13;;;29.00;53.70;;;;;;4991232;28;20129;-61
2021/07/26 07:19:54;;;;;;;10.35;5.97;;;29.10;53.50;;;;;;4975079;28;20481;-62
2021/07/26 07:22:20;;;;;;;9.32;5.93;;;29.20;53.80;;;;;;4974240;28;20105;-60
2021/07/26 07:24:47;;;;;;;8.50;5.93;;;29.30;52.80;;;;;;4974745;28;20395;-61
2021/07/26 07:27:13;;;;;;;10.00;6.03;;;29.30;52.60;;;;;;4991900;28;20132;-59
2021/07/26 07:29:39;;;;;;;10.82;6.28;;;29.40;52.40;;;;;;4992189;28;20034;-61
2021/07/26 07:32:05;;;;;;;11.68;6.40;;;29.40;52.10;;;;;;4991950;28;20505;-62
2021/07/26 07:34:31;;;;;;;10.15;6.28;;;29.50;52.10;;;;;;4990452;28;20034;-60
2021/07/26 07:36:58;;;;;;;7.72;6.32;;;29.50;51.70;;;;;;4991377;28;20037;-60
2021/07/26 07:39:29;;;;;;;7.28;6.00;;;29.60;51.60;;;;;;4973597;28;20034;-60
2021/07/26 07:41:55;;;;;;;11.25;6.03;;;29.60;51.30;;;;;;4991822;28;20030;-59
2021/07/26 07:44:20;;;;;;;8.25;5.85;;;29.60;51.00;;;;;;4991252;28;20031;-59
2021/07/26 07:46:46;;;;;;;8.98;5.90;;;29.70;50.80;;;;;;4992085;28;20338;-60
2021/07/26 07:49:12;;;;;;;8.93;5.93;;;29.70;50.70;;;;;;4991438;28;20026;-58
2021/07/26 07:51:38;;;;;;;9.18;6.43;;;29.70;50.50;;;;;;4974567;28;20034;-61
2021/07/26 07:54:04;;;;;;;8.35;6.47;;;29.80;50.60;;;;;;4974427;28;20480;-62
2021/07/26 07:56:29;;;;;;;9.15;6.35;;;29.80;50.70;;;;;;4990623;28;20434;-59
2021/07/26 07:58:59;;;;;;;9.90;6.47;;;29.80;50.80;;;;;;4991799;28;20045;-61
2021/07/26 08:01:31;;;;;;;10.50;6.93;;;29.80;50.70;;;;;;4991343;28;20030;-62
2021/07/26 08:03:57;;;;;;;10.38;6.32;;;29.80;50.70;;;;;;4991555;28;20054;-60
2021/07/26 08:06:28;;;;;;;10.25;7.20;;;29.80;50.80;;;;;;4991078;28;20066;-62
2021/07/26 08:08:54;;;;;;;10.20;6.15;;;29.80;50.80;;;;;;4974305;28;20037;-60
2021/07/26 08:11:19;;;;;;;8.75;6.20;;;29.80;50.80;;;;;;4990753;28;20038;-59
2021/07/26 08:13:45;;;;;;;10.48;6.00;;;29.70;50.50;;;;;;4991469;28;20026;-60
2021/07/26 08:16:10;;;;;;;6.75;5.82;;;29.70;50.50;;;;;;4973499;28;20101;-59
2021/07/26 08:18:36;;;;;;;7.85;5.85;;;29.70;50.40;;;;;;4990796;28;20122;-62
2021/07/26 08:21:02;;;;;;;15.50;6.57;;;29.70;50.50;;;;;;4991572;28;20057;-60
2021/07/26 08:23:28;;;;;;;9.65;5.97;;;29.80;50.50;;;;;;4990677;28;20035;-62
2021/07/26 08:25:53;;;;;;;8.80;6.32;;;29.70;50.30;;;;;;4991293;28;20026;-61
2021/07/26 08:28:19;;;;;;;10.98;6.80;;;29.70;50.40;;;;;;4973272;28;20044;-60
2021/07/26 08:30:45;;;;;;;7.85;6.75;;;29.70;50.30;;;;;;4991286;28;20037;-61
2021/07/26 08:33:12;;;;;;;9.85;6.60;;;29.70;50.40;;;;;;4991587;28;20026;-60
2021/07/26 08:35:38;;;;;;;8.82;6.70;;;29.70;50.50;;;;;;4973180;28;20032;-60
2021/07/26 08:38:05;;;;;;;9.85;6.60;;;29.70;50.50;;;;;;4973537;28;20125;-60
2021/07/26 08:40:32;;;;;;;12.10;6.90;;;29.70;50.60;;;;;;4990767;28;20058;-62
2021/07/26 08:43:07;;;;;;;14.18;6.18;;;29.70;50.90;;;;;;4991209;28;20026;-60
2021/07/26 08:45:33;;;;;;;9.77;6.88;;;29.70;50.90;;;;;;4973387;28;20022;-60
2021/07/26 08:48:06;;;;;;;9.18;7.25;;;29.70;50.90;;;;;;4977581;28;20057;-61
2021/07/26 08:50:37;;;;;;;8.35;6.50;;;29.70;51.00;;;;;;4976704;28;20121;-61
2021/07/26 08:53:08;;;;;;;10.13;6.53;;;29.70;50.90;;;;;;4995094;28;20034;-60
2021/07/26 08:55:34;;;;;;;8.88;6.78;;;29.70;50.80;;;;;;4993672;28;20090;-62
2021/07/26 08:58:01;;;;;;;10.70;6.13;;;29.70;50.80;;;;;;4994341;28;20165;-60
2021/07/26 09:00:27;;;;;;;9.30;6.35;;;29.70;50.60;;;;;;4976753;28;20342;-60
2021/07/26 09:02:53;;;;;;;12.63;6.82;;;29.70;50.70;;;;;;4994789;28;20101;-60
2021/07/26 09:05:20;;;;;;;8.60;6.10;;;29.70;50.50;;;;;;4993679;28;20059;-60
2021/07/26 09:07:48;;;;;;;7.20;5.90;;;29.70;50.50;;;;;;4994702;28;20066;-60
2021/07/26 09:10:23;;;;;;;8.93;5.82;;;29.70;50.20;;;;;;4976346;28;20113;-59
2021/07/26 09:12:50;;;;;;;8.30;5.85;;;29.70;50.20;;;;;;4994110;28;20061;-62
2021/07/26 09:15:25;;;;;;;10.93;6.15;;;29.70;50.10;;;;;;4993727;28;20472;-60
2021/07/26 09:17:52;;;;;;;7.90;6.10;;;29.70;49.80;;;;;;4976315;28;20038;-60
2021/07/26 09:20:24;;;;;;;8.85;5.57;;;29.70;49.60;;;;;;4993404;28;20066;-59
2021/07/26 09:22:51;;;;;;;9.43;5.90;;;29.70;49.80;;;;;;4993749;28;20026;-60
2021/07/26 09:25:25;;;;;;;7.68;6.00;;;29.70;49.90;;;;;;4976351;28;20473;-60
2021/07/26 09:28:13;;;;;;;6.22;5.30;;;29.70;49.90;;;;;;4994107;28;20038;-60
2021/07/26 09:31:07;;;;;;;7.20;4.85;;;29.70;49.70;;;;;;4975621;28;20124;-60
2021/07/26 09:33:33;;;;;;;6.40;5.28;;;29.70;49.40;;;;;;4991310;28;20035;-59
2021/07/26 09:36:13;;;;;;;6.90;5.40;;;29.80;49.40;;;;;;4993812;28;20488;-60
2021/07/26 09:38:58;;;;;;;6.32;5.47;;;29.70;49.20;;;;;;4992912;28;20489;-61
2021/07/26 09:41:47;;;;;;;6.78;5.20;;;29.70;49.40;;;;;;4975249;28;20030;-60
2021/07/26 09:44:20;;;;;;;9.38;4.90;;;29.70;49.30;;;;;;4975869;28;20026;-61
2021/07/26 09:46:46;;;;;;;8.60;4.80;;;29.70;49.20;;;;;;4993079;28;20029;-59
2021/07/26 09:49:13;;;;;;;8.38;5.25;;;29.70;49.00;;;;;;4993112;28;20101;-63
2021/07/26 09:51:40;;;;;;;8.30;5.43;;;29.70;49.00;;;;;;4993208;28;20034;-61
2021/07/26 09:54:06;;;;;;;7.28;4.75;;;29.70;49.00;;;;;;4993842;28;20420;-61
2021/07/26 09:56:33;;;;;;;7.93;5.15;;;29.70;48.90;;;;;;4975055;28;20270;-60
2021/07/26 09:59:02;;;;;;;6.03;4.57;;;29.80;49.00;;;;;;4975037;28;20042;-60
2021/07/26 10:01:29;;;;;;;7.88;4.53;;;29.70;49.00;;;;;;4992480;28;20027;-60
2021/07/26 10:03:56;;;;;;;5.97;4.72;;;29.70;48.80;;;;;;4975845;28;20033;-63
2021/07/26 10:06:22;;;;;;;7.43;4.53;;;29.80;48.70;;;;;;4971855;28;20074;-60
2021/07/26 10:08:49;;;;;;;6.00;4.82;;;29.70;48.60;;;;;;4973742;28;20034;-60
2021/07/26 10:11:16;;;;;;;7.25;4.70;;;29.80;48.60;;;;;;4971679;28;20079;-59
2021/07/26 10:13:44;;;;;;;5.78;4.50;;;29.80;48.40;;;;;;4973763;28;20073;-58
2021/07/26 10:16:18;;;;;;;7.00;4.75;;;29.80;48.50;;;;;;4972950;28;20050;-60
2021/07/26 10:18:49;;;;;;;5.20;3.85;;;29.80;48.60;;;;;;4972922;28;20046;-59
2021/07/26 10:21:28;;;;;;;6.20;4.38;;;29.80;48.20;;;;;;4973530;28;20027;-59
2021/07/26 10:24:00;;;;;;;5.93;4.25;;;29.80;48.30;;;;;;4973583;28;20149;-60
2021/07/26 10:26:35;;;;;;;5.60;4.10;;;29.80;48.20;;;;;;4972941;28;20031;-60
2021/07/26 10:29:02;;;;;;;5.95;4.28;;;29.80;48.30;;;;;;4973278;28;20089;-62
2021/07/26 10:31:28;;;;;;;8.52;4.15;;;29.80;48.30;;;;;;4971561;28;20031;-61
2021/07/26 10:34:04;;;;;;;7.82;4.10;;;29.80;48.30;;;;;;4971734;28;20049;-60
2021/07/26 10:36:52;;;;;;;7.57;4.38;;;29.80;48.30;;;;;;4971059;28;20027;-61
2021/07/26 10:39:19;;;;;;;6.15;4.18;;;29.80;48.40;;;;;;4972306;28;20058;-60
2021/07/26 10:41:45;;;;;;;6.25;4.35;;;29.90;48.40;;;;;;4973479;28;20105;-59
2021/07/26 10:44:17;;;;;;;6.38;4.25;;;29.90;48.30;;;;;;4971716;28;20469;-60
2021/07/26 10:46:57;;;;;;;4.93;4.30;;;29.80;48.20;;;;;;4972668;28;20126;-60
2021/07/26 10:49:50;;;;;;;6.63;4.55;;;29.80;48.00;;;;;;4971021;28;20030;-59
2021/07/26 10:52:21;;;;;;;7.05;3.95;;;29.80;47.80;;;;;;4970001;28;20023;-56
2021/07/26 10:54:48;;;;;;;9.80;4.63;;;29.80;48.00;;;;;;4970348;28;20424;-55
2021/07/26 10:57:15;;;;;;;5.82;3.97;;;29.90;48.00;;;;;;4970292;28;20037;-55
2021/07/26 11:00:22;;;;;;;6.50;4.55;;;29.90;47.90;;;;;;4971219;28;20055;-55
2021/07/26 11:02:49;;;;;;;6.65;3.97;;;29.80;47.60;;;;;;4972646;28;20035;-55
2021/07/26 11:05:27;;;;;;;8.55;4.28;;;29.90;47.70;;;;;;4979871;28;20046;-55
2021/07/26 11:08:18;;;;;;;6.15;4.60;;;29.90;47.70;;;;;;4991649;28;20034;-52
2021/07/26 11:10:48;;;;;;;5.65;4.70;;;29.90;47.90;;;;;;4973492;28;20031;-55
2021/07/26 11:13:15;;;;;;;9.23;4.30;;;29.90;47.80;;;;;;4991991;28;20030;-56
2021/07/26 11:15:55;;;;;;;6.18;4.32;;;29.90;47.80;;;;;;4974117;28;20022;-58
2021/07/26 11:18:29;;;;;;;6.38;4.07;;;29.90;47.90;;;;;;4990597;28;20045;-56
2021/07/26 11:20:56;;;;;;;6.90;4.70;;;29.90;47.70;;;;;;4991486;28;20485;-56
2021/07/26 11:23:49;;;;;;;8.40;4.97;;;30.00;47.90;;;;;;4991131;28;20092;-58
2021/07/26 11:26:25;;;;;;;6.70;4.20;;;29.90;48.00;;;;;;4972687;28;20062;-53
2021/07/26 11:28:54;;;;;;;9.40;4.28;;;30.00;47.80;;;;;;4974451;28;20478;-55
2021/07/26 11:31:27;;;;;;;9.90;4.93;;;30.00;47.70;;;;;;4991444;28;20084;-57
2021/07/26 11:34:03;;;;;;;8.80;5.20;;;30.10;47.90;;;;;;4974098;28;20030;-56
2021/07/26 11:36:28;;;;;;;7.38;4.25;;;30.10;47.80;;;;;;4991253;28;20540;-54
2021/07/26 11:38:55;;;;;;;8.23;5.07;;;30.10;47.80;;;;;;4958128;28;20022;-54
2021/07/26 11:41:22;;;;;;;12.18;5.10;;;30.10;47.80;;;;;;4991079;28;20049;-56
2021/07/26 11:43:48;;;;;;;6.25;4.30;;;30.10;47.80;;;;;;4991849;28;20029;-53
2021/07/26 11:46:14;;;;;;;10.13;4.18;;;30.10;47.60;;;;;;4992120;28;20022;-57
2021/07/26 11:48:40;;;;;;;10.95;4.43;;;30.10;47.50;;;;;;4991508;28;20090;-55
2021/07/26 11:51:26;;;;;;;9.05;4.45;;;30.10;47.50;;;;;;4974627;28;20077;-57
2021/07/26 11:54:04;;;;;;;7.25;4.22;;;30.10;47.50;;;;;;4974457;28;20466;-57
2021/07/26 11:56:30;;;;;;;9.38;4.32;;;30.10;47.20;;;;;;4991130;28;20022;-57
2021/07/26 11:59:12;;;;;;;7.97;4.13;;;30.20;46.90;;;;;;4973815;28;20038;-56
2021/07/26 12:01:39;;;;;;;6.18;4.20;;;30.10;47.00;;;;;;4990798;28;20030;-54
2021/07/26 12:04:05;;;;;;;5.63;3.70;;;30.10;46.70;;;;;;4991340;28;20035;-56
2021/07/26 12:06:52;;;;;;;9.10;4.15;;;30.10;46.70;;;;;;4970430;28;20058;-53
2021/07/26 12:09:18;;;;;;;5.65;4.13;;;30.10;46.80;;;;;;4971532;28;20031;-52
2021/07/26 12:11:44;;;;;;;6.40;3.97;;;30.10;46.80;;;;;;4972247;28;20074;-60
2021/07/26 12:14:30;;;;;;;8.60;4.18;;;30.10;47.30;;;;;;4970663;28;20508;-58
2021/07/26 12:17:01;;;;;;;6.10;3.92;;;30.10;46.80;;;;;;4971864;28;20062;-56
2021/07/26 12:19:28;;;;;;;6.05;4.10;;;30.10;46.60;;;;;;4970802;28;20030;-62
2021/07/26 12:21:55;;;;;;;5.20;3.83;;;30.20;46.70;;;;;;4973724;28;20031;-55
2021/07/26 12:24:43;;;;;;;5.93;4.45;;;30.20;46.70;;;;;;4974764;28;20081;-55
2021/07/26 12:27:09;;;;;;;6.28;4.57;;;30.20;46.80;;;;;;4974331;28;20034;-57
2021/07/26 12:29:34;;;;;;;6.68;4.70;;;30.20;46.70;;;;;;4974637;28;20378;-55
2021/07/26 12:32:04;;;;;;;9.30;4.72;;;30.30;46.70;;;;;;4974219;28;20034;-55
2021/07/26 12:34:30;;;;;;;11.80;4.85;;;30.20;46.70;;;;;;4973537;28;20031;-56
2021/07/26 12:37:07;;;;;;;7.03;4.85;;;30.30;47.50;;;;;;4975015;28;20035;-56
2021/07/26 12:39:39;;;;;;;12.18;4.00;;;30.20;46.90;;;;;;4974814;28;20035;-58
2021/07/26 12:42:22;;;;;;;8.82;4.70;;;30.30;46.90;;;;;;4973662;28;20031;-50
2021/07/26 12:44:48;;;;;;;7.03;4.40;;;30.20;47.00;;;;;;4974808;28;20030;-55
2021/07/26 12:47:33;;;;;;;7.15;4.82;;;30.30;47.10;;;;;;4975483;28;20038;-55